Weeting, United Kingdom
Current Conditions -  °F | °C
As of 6:58 PM on Tuesday 27 Jan 2015 (Local Time) from EGUL Reporting Station
Overcast Overcast  
Wind Chill: 38°   Ceiling: 3500
Heat Index: 44°   Visibility: 6mi
Dew Point: 44°   Wind: 10mph
Humidity: 100%   Direction: 240°WSW
Pressure: 30.18"   Gusts: NA
Location:  52.46°N, 0.61°E
Report Text: EGUL 271858Z AUTO 24009KT 9999 FEW026 OVC035 07/07 A3018 RMK AO2 SLP224 T00650065
Loading
Personal Weather Stations






























Interactive Weather Map New forecast layout! Learn more

10-Day Weather Forecast

Advertisements
Track Severe Weather on mobile